Time;durP1;ratioP1;P1;durP2;ratioP2;P2;SDS_P1;SDS_P2;PMS_P1;PMS_P2;Temp;Humidity;BMP_temperature;BMP_pressure;BME280_temperature;BME280_humidity;BME280_pressure;Samples;Min_cycle;Max_cycle;Signal;HPM_P1;HPM_P2
2023/11/28 00:01:03;;;;;;;;;;;19.50;64.30;;;;;;5023756;28;1525;-70
2023/11/28 00:03:29;;;;;;;;;;;19.40;64.20;;;;;;5021964;28;1902;-71
2023/11/28 00:05:55;;;;;;;;;;;19.40;64.20;;;;;;5021724;28;1308;-71
2023/11/28 00:08:21;;;;;;;;;;;19.40;64.20;;;;;;5018360;28;1969;-71
2023/11/28 00:10:49;;;;;;;;;;;19.40;64.30;;;;;;5020967;28;1708;-71
2023/11/28 00:13:15;;;;;;;;;;;19.40;64.30;;;;;;5004355;28;1260;-71
2023/11/28 00:15:41;;;;;;;;;;;19.40;64.30;;;;;;5020035;28;1416;-70
2023/11/28 00:18:07;;;;;;;;;;;19.40;64.30;;;;;;5008331;28;1468;-71
2023/11/28 00:20:32;;;;;;;;;;;19.40;64.30;;;;;;5019733;28;1298;-71
2023/11/28 00:22:57;;;;;;;;;;;19.40;64.30;;;;;;5020767;28;1364;-71
2023/11/28 00:25:23;;;;;;;;;;;19.40;64.30;;;;;;5022280;28;1906;-71
2023/11/28 00:27:49;;;;;;;;;;;19.40;64.30;;;;;;5020753;28;1684;-71
2023/11/28 00:30:15;;;;;;;;;;;19.40;64.30;;;;;;5021813;28;1339;-71
2023/11/28 00:32:43;;;;;;;;;;;19.40;64.30;;;;;;5020833;28;1235;-73
2023/11/28 00:35:09;;;;;;;;;;;19.40;65.00;;;;;;5003431;28;1285;-71
2023/11/28 00:37:34;;;;;;;;;;;19.40;64.30;;;;;;5002310;28;1384;-71
2023/11/28 00:40:00;;;;;;;;;;;19.40;64.30;;;;;;5006434;28;1248;-71
2023/11/28 00:42:25;;;;;;;;;;;19.40;64.30;;;;;;5020076;28;1207;-71
2023/11/28 00:44:52;;;;;;;;;;;19.40;64.30;;;;;;5019783;28;1898;-70
2023/11/28 00:47:17;;;;;;;;;;;19.40;64.30;;;;;;5008141;28;1698;-71
2023/11/28 00:49:43;;;;;;;;;;;19.40;64.40;;;;;;5003352;28;1558;-71
2023/11/28 00:52:09;;;;;;;;;;;19.40;64.30;;;;;;5020158;28;1365;-71
2023/11/28 00:54:35;;;;;;;;;;;19.40;64.30;;;;;;5020121;28;1825;-71
2023/11/28 00:57:00;;;;;;;;;;;19.40;65.10;;;;;;5000903;28;1269;-71
2023/11/28 00:59:26;;;;;;;;;;;19.40;64.40;;;;;;5001069;28;1315;-71
2023/11/28 01:01:52;;;;;;;;;;;19.40;64.40;;;;;;5022229;28;2044;-71
2023/11/28 01:04:17;;;;;;;;;;;19.40;64.40;;;;;;5021214;28;1906;-71
2023/11/28 01:06:43;;;;;;;;;;;19.40;64.40;;;;;;4982795;28;1977;-71
2023/11/28 01:09:08;;;;;;;;;;;19.40;64.40;;;;;;5003574;28;1943;-71
2023/11/28 01:11:36;;;;;;;;;;;19.40;64.40;;;;;;5009881;28;1428;-70
2023/11/28 01:14:04;;;;;;;;;;;19.40;64.70;;;;;;5003561;28;1351;-70
2023/11/28 01:16:29;;;;;;;;;;;19.50;64.70;;;;;;5003265;28;1563;-70
2023/11/28 01:18:55;;;;;;;;;;;19.50;64.50;;;;;;5018418;28;1610;-70
2023/11/28 01:21:20;;;;;;;;;;;19.50;64.50;;;;;;5021121;28;1419;-70
2023/11/28 01:23:45;;;;;;;;;;;19.50;64.60;;;;;;5020279;28;1914;-69
2023/11/28 01:26:11;;;;;;;;;;;19.60;64.50;;;;;;5020184;28;1398;-70
2023/11/28 01:28:37;;;;;;;;;;;19.60;64.50;;;;;;5000664;28;1237;-70
2023/11/28 01:31:02;;;;;;;;;;;19.60;64.60;;;;;;5019456;28;1403;-70
2023/11/28 01:33:27;;;;;;;;;;;19.60;64.50;;;;;;5018611;28;1452;-69
2023/11/28 01:35:53;;;;;;;;;;;19.60;64.70;;;;;;5020536;28;1296;-70
2023/11/28 01:38:18;;;;;;;;;;;19.60;64.60;;;;;;5019784;28;1094;-70
2023/11/28 01:40:47;;;;;;;;;;;19.60;64.60;;;;;;5004062;28;1782;-70
2023/11/28 01:43:22;;;;;;;;;;;19.60;64.80;;;;;;5025748;28;1233;-70
2023/11/28 01:45:50;;;;;;;;;;;19.60;64.80;;;;;;5023452;28;1544;-71
2023/11/28 01:48:15;;;;;;;;;;;19.60;64.90;;;;;;5025674;28;1076;-70
2023/11/28 01:50:42;;;;;;;;;;;19.60;65.00;;;;;;5024096;28;1007;-69
2023/11/28 01:53:08;;;;;;;;;;;19.60;65.00;;;;;;5011431;28;1537;-70
2023/11/28 01:55:33;;;;;;;;;;;19.60;65.20;;;;;;5010570;28;1537;-70
2023/11/28 01:57:59;;;;;;;;;;;19.60;65.10;;;;;;5024928;28;1468;-70
2023/11/28 02:00:24;;;;;;;;;;;19.60;65.40;;;;;;5024108;28;1539;-70
2023/11/28 02:02:50;;;;;;;;;;;19.60;65.50;;;;;;5023413;28;1543;-70
2023/11/28 02:05:15;;;;;;;;;;;19.60;65.50;;;;;;5022462;28;1906;-69
2023/11/28 02:07:41;;;;;;;;;;;19.60;65.50;;;;;;5008306;28;1499;-70
2023/11/28 02:10:07;;;;;;;;;;;19.60;65.60;;;;;;5026121;28;1250;-70
2023/11/28 02:12:32;;;;;;;;;;;19.60;65.60;;;;;;5023150;28;1528;-70
2023/11/28 02:14:58;;;;;;;;;;;19.60;65.60;;;;;;5009293;28;1572;-70
2023/11/28 02:17:23;;;;;;;;;;;19.70;65.80;;;;;;5022454;28;1440;-70
2023/11/28 02:19:51;;;;;;;;;;;19.70;65.80;;;;;;5009448;28;1506;-69
2023/11/28 02:22:19;;;;;;;;;;;19.70;65.80;;;;;;5023391;28;1319;-70
2023/11/28 02:24:45;;;;;;;;;;;19.70;66.00;;;;;;5023800;28;1898;-70
2023/11/28 02:27:11;;;;;;;;;;;19.70;66.00;;;;;;5025473;28;1219;-70
2023/11/28 02:29:36;;;;;;;;;;;19.70;66.00;;;;;;5004381;28;1704;-70
2023/11/28 02:32:02;;;;;;;;;;;19.70;66.20;;;;;;5025002;28;1438;-70
2023/11/28 02:34:27;;;;;;;;;;;19.70;66.20;;;;;;5022152;28;1631;-70
2023/11/28 02:36:52;;;;;;;;;;;19.70;66.10;;;;;;5020723;28;1551;-69
2023/11/28 02:39:18;;;;;;;;;;;19.70;66.20;;;;;;5022534;28;1481;-70
2023/11/28 02:41:43;;;;;;;;;;;19.70;66.30;;;;;;5023800;28;1457;-69
2023/11/28 02:44:09;;;;;;;;;;;19.60;66.10;;;;;;5024458;28;1970;-70
2023/11/28 02:46:38;;;;;;;;;;;19.70;66.30;;;;;;5002932;28;1606;-70
2023/11/28 02:49:03;;;;;;;;;;;19.60;66.10;;;;;;5020633;28;1399;-70
2023/11/28 02:51:29;;;;;;;;;;;19.70;66.20;;;;;;5023836;28;1618;-69
2023/11/28 02:53:54;;;;;;;;;;;19.70;66.30;;;;;;5020581;28;1523;-70
2023/11/28 02:56:20;;;;;;;;;;;19.70;66.30;;;;;;5021381;28;1585;-70
2023/11/28 02:58:45;;;;;;;;;;;19.70;66.30;;;;;;5022387;28;1651;-70
2023/11/28 03:01:11;;;;;;;;;;;19.70;66.40;;;;;;5011057;28;1371;-70
2023/11/28 03:03:36;;;;;;;;;;;19.70;66.50;;;;;;5020922;28;1938;-70
2023/11/28 03:06:02;;;;;;;;;;;19.70;66.40;;;;;;5003947;28;1503;-69
2023/11/28 03:08:27;;;;;;;;;;;19.60;67.20;;;;;;5020366;28;1485;-69
2023/11/28 03:10:53;;;;;;;;;;;19.60;66.50;;;;;;5020422;28;1505;-69
2023/11/28 03:13:18;;;;;;;;;;;19.70;66.40;;;;;;5021315;28;1408;-69
2023/11/28 03:15:44;;;;;;;;;;;19.70;66.40;;;;;;5004595;28;1680;-69
2023/11/28 03:18:09;;;;;;;;;;;19.70;66.50;;;;;;5024179;28;1695;-69
2023/11/28 03:20:38;;;;;;;;;;;19.70;66.50;;;;;;5010136;28;1360;-70
2023/11/28 03:23:03;;;;;;;;;;;19.70;66.50;;;;;;5024617;28;1449;-69
2023/11/28 03:25:29;;;;;;;;;;;19.70;66.50;;;;;;5024758;28;1956;-70
2023/11/28 03:27:54;;;;;;;;;;;19.70;66.70;;;;;;5024752;28;1514;-70
2023/11/28 03:30:22;;;;;;;;;;;19.70;66.70;;;;;;5024721;28;1332;-70
2023/11/28 03:32:47;;;;;;;;;;;19.70;66.70;;;;;;5001454;28;1250;-70
2023/11/28 03:35:13;;;;;;;;;;;19.70;66.70;;;;;;5009657;28;1398;-69
2023/11/28 03:37:38;;;;;;;;;;;19.70;66.60;;;;;;5004968;28;1213;-70
2023/11/28 03:40:04;;;;;;;;;;;19.70;66.50;;;;;;5010204;28;978;-70
2023/11/28 03:42:30;;;;;;;;;;;19.70;66.40;;;;;;5022757;28;1458;-70
2023/11/28 03:44:55;;;;;;;;;;;19.80;66.40;;;;;;5002536;28;1919;-69
2023/11/28 03:47:21;;;;;;;;;;;19.80;66.40;;;;;;5021606;28;1485;-70
2023/11/28 03:49:46;;;;;;;;;;;19.80;66.40;;;;;;5019406;28;1649;-69
2023/11/28 03:52:12;;;;;;;;;;;19.80;66.40;;;;;;5021799;28;1444;-70
2023/11/28 03:54:37;;;;;;;;;;;19.80;66.50;;;;;;5021673;28;1328;-70
2023/11/28 03:57:03;;;;;;;;;;;19.80;66.90;;;;;;5023040;28;1412;-70
2023/11/28 03:59:32;;;;;;;;;;;19.80;67.00;;;;;;5006818;28;1671;-70
2023/11/28 04:01:57;;;;;;;;;;;19.80;67.20;;;;;;5007295;28;1575;-69
2023/11/28 04:04:23;;;;;;;;;;;19.80;67.10;;;;;;5022712;28;1911;-70
2023/11/28 04:06:48;;;;;;;;;;;19.80;67.20;;;;;;5020653;28;1479;-70
2023/11/28 04:09:14;;;;;;;;;;;19.80;67.30;;;;;;5003808;28;1369;-70
2023/11/28 04:11:39;;;;;;;;;;;19.80;67.40;;;;;;5020139;28;1356;-70
2023/11/28 04:14:04;;;;;;;;;;;19.80;67.40;;;;;;5024851;28;994;-70
2023/11/28 04:16:30;;;;;;;;;;;19.80;67.60;;;;;;5019214;28;1375;-71
2023/11/28 04:18:55;;;;;;;;;;;19.80;67.60;;;;;;5021952;28;1382;-70
2023/11/28 04:21:21;;;;;;;;;;;19.80;67.70;;;;;;5023081;28;1420;-70
2023/11/28 04:23:47;;;;;;;;;;;19.80;67.80;;;;;;5012398;28;1997;-70
2023/11/28 04:26:12;;;;;;;;;;;19.80;68.10;;;;;;5019308;28;1406;-70
2023/11/28 04:28:37;;;;;;;;;;;19.80;67.70;;;;;;5021135;28;1521;-70
2023/11/28 04:31:03;;;;;;;;;;;19.80;67.80;;;;;;5019678;28;1259;-70
2023/11/28 04:33:29;;;;;;;;;;;19.80;67.80;;;;;;5021708;28;1415;-70
2023/11/28 04:35:55;;;;;;;;;;;19.80;67.90;;;;;;5020945;28;1449;-70
2023/11/28 04:38:20;;;;;;;;;;;19.80;67.80;;;;;;5020941;28;1355;-70
2023/11/28 04:40:45;;;;;;;;;;;19.80;67.90;;;;;;5020358;28;1346;-70
2023/11/28 04:43:11;;;;;;;;;;;19.80;67.90;;;;;;5021332;28;911;-70
2023/11/28 04:45:36;;;;;;;;;;;19.80;68.00;;;;;;5021465;28;1906;-71
2023/11/28 04:48:02;;;;;;;;;;;19.70;68.00;;;;;;5021480;28;1149;-70
2023/11/28 04:50:28;;;;;;;;;;;19.80;68.10;;;;;;5020813;28;1282;-70
2023/11/28 04:52:53;;;;;;;;;;;19.80;68.20;;;;;;5020094;28;959;-70
2023/11/28 04:55:19;;;;;;;;;;;19.80;68.50;;;;;;5004964;28;1304;-70
2023/11/28 04:57:44;;;;;;;;;;;19.80;68.30;;;;;;5021707;28;1182;-70
2023/11/28 05:00:10;;;;;;;;;;;19.80;68.30;;;;;;5020200;28;976;-70
2023/11/28 05:02:36;;;;;;;;;;;19.80;68.40;;;;;;5019021;28;1368;-70
2023/11/28 05:05:02;;;;;;;;;;;19.80;68.40;;;;;;5020668;28;1965;-70
2023/11/28 05:07:28;;;;;;;;;;;19.80;68.50;;;;;;5020943;28;963;-70
2023/11/28 05:09:53;;;;;;;;;;;19.80;68.40;;;;;;5020417;28;1443;-70
2023/11/28 05:12:19;;;;;;;;;;;19.80;68.20;;;;;;5019675;28;1449;-70
2023/11/28 05:14:44;;;;;;;;;;;19.80;68.40;;;;;;5024191;28;1387;-70
2023/11/28 05:17:10;;;;;;;;;;;19.80;68.50;;;;;;5023902;28;1395;-70
2023/11/28 05:19:35;;;;;;;;;;;19.80;68.50;;;;;;5022470;28;1544;-70
2023/11/28 05:22:01;;;;;;;;;;;19.80;68.50;;;;;;5022561;28;1471;-70
2023/11/28 05:24:26;;;;;;;;;;;19.80;68.50;;;;;;5011225;28;1973;-70
2023/11/28 05:26:52;;;;;;;;;;;19.70;68.40;;;;;;5022643;28;1527;-70
2023/11/28 05:29:17;;;;;;;;;;;19.70;68.40;;;;;;5024088;28;1346;-70
2023/11/28 05:31:43;;;;;;;;;;;19.70;68.40;;;;;;5024618;28;1443;-70
2023/11/28 05:34:08;;;;;;;;;;;19.70;68.50;;;;;;5023713;28;1443;-70
2023/11/28 05:36:33;;;;;;;;;;;19.70;68.80;;;;;;5022090;28;1453;-70
2023/11/28 05:38:59;;;;;;;;;;;19.70;68.90;;;;;;5021673;28;1358;-70
2023/11/28 05:41:25;;;;;;;;;;;19.70;68.90;;;;;;5024748;28;1354;-70
2023/11/28 05:43:50;;;;;;;;;;;19.70;69.00;;;;;;5023648;28;1953;-70
2023/11/28 05:46:16;;;;;;;;;;;19.70;68.80;;;;;;5023796;28;1551;-70
2023/11/28 05:48:41;;;;;;;;;;;19.70;68.90;;;;;;5022912;28;1387;-70
2023/11/28 05:51:08;;;;;;;;;;;19.80;69.00;;;;;;5006866;28;1614;-70
2023/11/28 05:53:34;;;;;;;;;;;19.80;68.90;;;;;;5024147;28;1385;-70
2023/11/28 05:56:01;;;;;;;;;;;19.80;69.00;;;;;;5024617;28;1367;-70
2023/11/28 05:58:27;;;;;;;;;;;19.90;68.90;;;;;;5005150;28;1484;-69
2023/11/28 06:00:52;;;;;;;;;;;19.90;68.90;;;;;;5023262;28;1684;-70
2023/11/28 06:03:18;;;;;;;;;;;19.90;68.70;;;;;;5021324;28;1552;-70
2023/11/28 06:05:43;;;;;;;;;;;20.00;68.70;;;;;;5025138;28;1991;-70
2023/11/28 06:08:09;;;;;;;;;;;20.00;68.70;;;;;;5022247;28;1787;-67
2023/11/28 06:10:34;;;;;;;;;;;20.00;68.60;;;;;;5016584;28;2142;-67
2023/11/28 06:13:00;;;;;;;;;;;20.10;69.20;;;;;;5021223;28;1244;-70
2023/11/28 06:15:26;;;;;;;;;;;20.20;69.40;;;;;;5021754;28;1402;-70
2023/11/28 06:17:51;;;;;;;;;;;20.20;69.30;;;;;;5018531;28;1122;-70
2023/11/28 06:20:17;;;;;;;;;;;20.30;69.10;;;;;;5022271;28;1299;-69
2023/11/28 06:22:43;;;;;;;;;;;20.30;69.00;;;;;;5024569;28;1445;-70
2023/11/28 06:25:08;;;;;;;;;;;20.30;68.60;;;;;;5019459;28;1918;-71
2023/11/28 06:27:34;;;;;;;;;;;20.30;68.60;;;;;;5005530;28;1525;-69
2023/11/28 06:29:59;;;;;;;;;;;20.30;68.40;;;;;;5021780;28;872;-69
2023/11/28 06:32:25;;;;;;;;;;;20.30;68.20;;;;;;5010892;28;1260;-70
2023/11/28 06:34:50;;;;;;;;;;;20.30;68.50;;;;;;5024338;28;1656;-70
2023/11/28 06:37:16;;;;;;;;;;;20.30;68.20;;;;;;5023101;28;1501;-70
2023/11/28 06:39:41;;;;;;;;;;;20.30;68.10;;;;;;5020232;28;1464;-67
2023/11/28 06:42:07;;;;;;;;;;;20.40;68.20;;;;;;5023292;28;1482;-70
2023/11/28 06:44:33;;;;;;;;;;;20.40;68.10;;;;;;5024093;28;1902;-71
2023/11/28 06:46:59;;;;;;;;;;;20.40;68.30;;;;;;5022332;28;1080;-71
2023/11/28 06:49:24;;;;;;;;;;;20.40;68.30;;;;;;5023266;28;1178;-69
2023/11/28 06:51:50;;;;;;;;;;;20.40;68.30;;;;;;5022242;28;1724;-67
2023/11/28 06:54:16;;;;;;;;;;;20.40;68.20;;;;;;5023217;28;1472;-72
2023/11/28 06:56:42;;;;;;;;;;;20.40;68.20;;;;;;5019706;28;1379;-71
2023/11/28 06:59:07;;;;;;;;;;;20.40;68.20;;;;;;5020459;28;1438;-71
2023/11/28 07:01:36;;;;;;;;;;;20.30;68.10;;;;;;5021116;28;1355;-66
2023/11/28 07:04:01;;;;;;;;;;;20.30;68.10;;;;;;5021917;28;1951;-70
2023/11/28 07:06:26;;;;;;;;;;;20.40;68.00;;;;;;5021216;28;1390;-70
2023/11/28 07:08:52;;;;;;;;;;;20.30;68.10;;;;;;5020894;28;1611;-70
2023/11/28 07:11:20;;;;;;;;;;;20.40;68.20;;;;;;5020646;28;1377;-69
2023/11/28 07:13:47;;;;;;;;;;;20.40;68.40;;;;;;5022662;28;1445;-67
2023/11/28 07:16:13;;;;;;;;;;;20.40;68.40;;;;;;5023487;28;1529;-67
2023/11/28 07:18:38;;;;;;;;;;;20.50;68.50;;;;;;5002110;28;1383;-71
2023/11/28 07:21:04;;;;;;;;;;;20.60;68.30;;;;;;5024246;28;1639;-70
2023/11/28 07:23:30;;;;;;;;;;;20.70;68.10;;;;;;5022114;28;1573;-70
2023/11/28 07:25:55;;;;;;;;;;;20.80;67.90;;;;;;5005510;28;1969;-70
2023/11/28 07:28:21;;;;;;;;;;;20.90;67.70;;;;;;5022230;28;981;-70
2023/11/28 07:30:47;;;;;;;;;;;20.90;67.50;;;;;;5022017;28;1375;-68
2023/11/28 07:33:13;;;;;;;;;;;21.00;67.30;;;;;;5022331;28;1310;-68
2023/11/28 07:35:38;;;;;;;;;;;21.10;67.00;;;;;;5005124;28;2020;-69
2023/11/28 07:38:04;;;;;;;;;;;21.20;66.80;;;;;;5017087;28;1004;-66
2023/11/28 07:40:32;;;;;;;;;;;21.30;66.50;;;;;;5019278;28;1014;-69
2023/11/28 07:42:58;;;;;;;;;;;21.30;66.30;;;;;;5025566;28;1160;-68
2023/11/28 07:45:23;;;;;;;;;;;21.40;66.00;;;;;;5019082;28;1906;-68
2023/11/28 07:47:49;;;;;;;;;;;21.40;65.80;;;;;;5022472;28;1436;-66
2023/11/28 07:50:17;;;;;;;;;;;21.50;65.60;;;;;;5022251;28;1337;-69
2023/11/28 07:52:43;;;;;;;;;;;21.60;65.40;;;;;;5021346;28;1451;-69
2023/11/28 07:55:09;;;;;;;;;;;21.60;65.30;;;;;;5019065;28;1320;-68
2023/11/28 07:57:34;;;;;;;;;;;21.60;65.20;;;;;;5001901;28;1376;-68
2023/11/28 08:00:00;;;;;;;;;;;21.70;65.00;;;;;;5017918;28;1179;-67
2023/11/28 08:02:26;;;;;;;;;;;21.70;64.90;;;;;;5020866;28;1484;-69
2023/11/28 08:04:51;;;;;;;;;;;21.70;64.80;;;;;;5018976;28;1961;-68
2023/11/28 08:07:17;;;;;;;;;;;21.80;64.70;;;;;;5000324;28;1379;-69
2023/11/28 08:09:42;;;;;;;;;;;21.70;64.60;;;;;;5001767;28;1418;-68
2023/11/28 08:12:08;;;;;;;;;;;21.80;65.40;;;;;;5003220;28;1449;-68
2023/11/28 08:14:33;;;;;;;;;;;21.80;64.60;;;;;;5019771;28;1351;-68
2023/11/28 08:16:59;;;;;;;;;;;21.80;64.70;;;;;;5018969;28;1470;-68
2023/11/28 08:19:25;;;;;;;;;;;21.80;64.70;;;;;;5019906;28;1439;-68
2023/11/28 08:21:51;;;;;;;;;;;21.80;64.70;;;;;;5022455;28;1677;-69
2023/11/28 08:24:16;;;;;;;;;;;21.70;64.70;;;;;;5006367;28;1966;-68
2023/11/28 08:26:42;;;;;;;;;;;21.70;64.70;;;;;;5018913;28;1423;-68
2023/11/28 08:29:07;;;;;;;;;;;21.70;64.80;;;;;;5018824;28;1344;-68
2023/11/28 08:31:33;;;;;;;;;;;21.70;64.80;;;;;;5020382;28;1252;-68
2023/11/28 08:33:58;;;;;;;;;;;21.70;64.90;;;;;;5019672;28;1416;-68
2023/11/28 08:36:24;;;;;;;;;;;21.70;65.00;;;;;;5022052;28;1458;-69
2023/11/28 08:38:50;;;;;;;;;;;21.70;65.10;;;;;;5019307;28;1441;-69
2023/11/28 08:41:16;;;;;;;;;;;21.60;65.30;;;;;;5019407;28;1274;-69
2023/11/28 08:43:42;;;;;;;;;;;21.60;65.40;;;;;;5019344;28;1906;-69
2023/11/28 08:46:08;;;;;;;;;;;21.60;65.50;;;;;;5016769;28;1374;-69
2023/11/28 08:48:33;;;;;;;;;;;21.60;65.60;;;;;;5020951;28;1450;-71
2023/11/28 08:50:59;;;;;;;;;;;21.60;65.50;;;;;;5022350;28;1320;-69
2023/11/28 08:53:24;;;;;;;;;;;21.60;66.40;;;;;;5007570;28;1801;-68
2023/11/28 08:55:50;;;;;;;;;;;21.60;65.70;;;;;;5022756;28;1380;-68
2023/11/28 08:58:15;;;;;;;;;;;21.60;65.70;;;;;;5022853;28;1364;-68
2023/11/28 09:00:41;;;;;;;;;;;21.60;65.70;;;;;;5022522;28;1355;-69
2023/11/28 09:03:06;;;;;;;;;;;21.60;65.70;;;;;;5025107;28;1519;-69
2023/11/28 09:05:32;;;;;;;;;;;21.60;65.80;;;;;;5024101;28;1997;-69
2023/11/28 09:07:57;;;;;;;;;;;21.50;65.80;;;;;;5024235;28;1778;-69
2023/11/28 09:10:23;;;;;;;;;;;21.50;65.80;;;;;;5023761;28;1381;-69
2023/11/28 09:12:48;;;;;;;;;;;21.50;66.20;;;;;;5010992;28;1363;-69
2023/11/28 09:15:14;;;;;;;;;;;21.50;66.00;;;;;;5022108;28;1375;-68
2023/11/28 09:17:40;;;;;;;;;;;21.50;66.20;;;;;;5007635;28;1462;-69
2023/11/28 09:20:09;;;;;;;;;;;21.50;67.00;;;;;;5023527;28;1298;-69
2023/11/28 09:22:35;;;;;;;;;;;21.50;66.10;;;;;;5011525;28;1514;-68
2023/11/28 09:25:00;;;;;;;;;;;21.50;66.50;;;;;;5024288;28;1969;-69
2023/11/28 09:27:26;;;;;;;;;;;21.50;66.30;;;;;;5023139;28;1351;-68
2023/11/28 09:29:51;;;;;;;;;;;21.50;66.20;;;;;;5011016;28;1545;-68
2023/11/28 09:32:17;;;;;;;;;;;21.50;66.50;;;;;;5025565;28;1429;-68
2023/11/28 09:34:45;;;;;;;;;;;21.50;66.40;;;;;;5022178;28;1461;-68
2023/11/28 09:37:13;;;;;;;;;;;21.50;66.40;;;;;;5009530;28;1490;-67
2023/11/28 09:39:39;;;;;;;;;;;21.40;66.40;;;;;;5020874;28;1463;-68
2023/11/28 09:42:06;;;;;;;;;;;21.40;66.40;;;;;;5020488;28;1552;-68
2023/11/28 09:44:33;;;;;;;;;;;21.40;66.40;;;;;;5004648;28;1942;-69
2023/11/28 09:46:59;;;;;;;;;;;21.40;66.50;;;;;;5023311;28;1924;-68
2023/11/28 09:49:24;;;;;;;;;;;21.40;66.60;;;;;;5011495;28;1416;-68
2023/11/28 09:51:50;;;;;;;;;;;21.40;67.10;;;;;;5004092;28;1171;-69
2023/11/28 09:54:16;;;;;;;;;;;21.40;66.90;;;;;;5026403;28;1443;-68
2023/11/28 09:56:45;;;;;;;;;;;21.40;66.70;;;;;;5020759;28;1916;-68
2023/11/28 09:59:11;;;;;;;;;;;21.50;67.00;;;;;;5002478;28;1459;-69
2023/11/28 10:01:37;;;;;;;;;;;21.50;66.90;;;;;;5023284;28;1388;-68
2023/11/28 10:04:02;;;;;;;;;;;21.50;66.60;;;;;;5007805;28;1898;-69
2023/11/28 10:09:31;;;;;;;;;;;21.50;66.10;;;;;;5009892;28;2049;-68
2023/11/28 10:12:00;;;;;;;;;;;21.60;66.00;;;;;;5023616;28;1522;-70
2023/11/28 10:14:25;;;;;;;;;;;21.60;66.00;;;;;;5005241;28;1331;-70
2023/11/28 10:16:51;;;;;;;;;;;21.60;65.90;;;;;;5019442;28;1250;-70
2023/11/28 10:19:17;;;;;;;;;;;21.60;65.80;;;;;;5025549;28;1350;-70
2023/11/28 10:21:42;;;;;;;;;;;21.60;65.80;;;;;;5004643;28;1380;-70
2023/11/28 10:24:11;;;;;;;;;;;21.60;65.80;;;;;;5011009;28;1913;-71
2023/11/28 10:26:36;;;;;;;;;;;21.60;66.10;;;;;;5005226;28;1281;-70
2023/11/28 10:29:03;;;;;;;;;;;21.60;66.10;;;;;;5022622;28;1364;-70
2023/11/28 10:31:28;;;;;;;;;;;21.60;65.90;;;;;;5025026;28;1365;-70
2023/11/28 10:33:56;;;;;;;;;;;21.60;66.10;;;;;;5022560;28;1516;-71
2023/11/28 10:36:22;;;;;;;;;;;21.60;66.20;;;;;;5002238;28;1676;-70
2023/11/28 10:38:47;;;;;;;;;;;21.60;66.10;;;;;;5020824;28;1452;-69
2023/11/28 10:41:12;;;;;;;;;;;21.60;66.20;;;;;;5022318;28;1348;-69
2023/11/28 10:43:38;;;;;;;;;;;21.60;66.30;;;;;;5022585;28;1507;-69
2023/11/28 10:46:03;;;;;;;;;;;21.60;66.20;;;;;;5022331;28;1894;-68
2023/11/28 10:48:29;;;;;;;;;;;21.60;66.10;;;;;;5007377;28;1437;-70
2023/11/28 10:50:55;;;;;;;;;;;21.60;66.20;;;;;;5020200;28;1519;-70
2023/11/28 10:53:21;;;;;;;;;;;21.60;66.40;;;;;;5000809;28;1502;-69
2023/11/28 10:55:50;;;;;;;;;;;21.60;66.30;;;;;;5003526;28;1425;-69
2023/11/28 10:58:16;;;;;;;;;;;21.50;66.20;;;;;;5001403;28;1291;-68
2023/11/28 11:00:52;;;;;;;;;;;21.50;66.20;;;;;;5004627;28;1587;-70
2023/11/28 11:03:18;;;;;;;;;;;21.50;66.20;;;;;;5021547;28;1433;-69
2023/11/28 11:05:43;;;;;;;;;;;21.50;66.30;;;;;;5009502;28;1898;-70
2023/11/28 11:08:09;;;;;;;;;;;21.50;66.40;;;;;;5002019;28;1388;-69
2023/11/28 11:10:35;;;;;;;;;;;21.50;66.40;;;;;;5020581;28;1783;-69
2023/11/28 11:13:07;;;;;;;;;;;21.50;66.50;;;;;;5021260;28;2005;-69
2023/11/28 11:15:36;;;;;;;;;;;21.50;66.50;;;;;;5018181;28;1343;-69
2023/11/28 11:18:11;;;;;;;;;;;21.50;66.50;;;;;;5002116;28;1103;-69
2023/11/28 11:20:39;;;;;;;;;;;21.50;66.50;;;;;;5009299;28;2023;-70
2023/11/28 11:23:05;;;;;;;;;;;21.50;66.60;;;;;;5019996;28;1358;-70
2023/11/28 11:25:40;;;;;;;;;;;21.50;66.70;;;;;;5004591;28;2186;-70
2023/11/28 11:28:06;;;;;;;;;;;21.40;66.80;;;;;;5001611;28;1418;-70
2023/11/28 11:30:33;;;;;;;;;;;21.40;66.60;;;;;;5004394;28;1435;-70
2023/11/28 11:32:59;;;;;;;;;;;21.40;66.60;;;;;;5005317;28;1338;-70
2023/11/28 11:35:26;;;;;;;;;;;21.50;66.70;;;;;;5022431;28;1453;-70
2023/11/28 11:37:51;;;;;;;;;;;21.50;67.00;;;;;;5020972;28;1512;-69
2023/11/28 11:40:18;;;;;;;;;;;21.50;66.80;;;;;;5020624;28;1973;-70
2023/11/28 11:42:44;;;;;;;;;;;21.50;66.80;;;;;;5001278;28;1527;-70
2023/11/28 11:45:10;;;;;;;;;;;21.50;66.70;;;;;;5019423;28;1891;-70
2023/11/28 11:47:36;;;;;;;;;;;21.60;66.70;;;;;;4991872;28;1492;-70
2023/11/28 11:50:04;;;;;;;;;;;21.60;66.60;;;;;;5021797;28;1573;-70
2023/11/28 11:52:30;;;;;;;;;;;21.60;66.50;;;;;;5006370;28;1662;-69
2023/11/28 11:55:04;;;;;;;;;;;21.60;66.40;;;;;;5009073;28;1559;-69
2023/11/28 11:57:30;;;;;;;;;;;21.60;66.50;;;;;;5019251;28;1320;-70
2023/11/28 11:59:55;;;;;;;;;;;21.60;66.50;;;;;;5021225;28;1460;-70
2023/11/28 12:02:22;;;;;;;;;;;21.60;66.40;;;;;;4993119;28;1863;-69
2023/11/28 12:04:47;;;;;;;;;;;21.60;66.60;;;;;;5021048;28;1968;-69
2023/11/28 12:07:13;;;;;;;;;;;21.50;64.20;;;;;;5020973;28;1251;-70
2023/11/28 12:09:39;;;;;;;;;;;21.50;58.20;;;;;;5023338;28;1699;-70
2023/11/28 12:12:05;;;;;;;;;;;21.40;56.10;;;;;;5019541;28;1389;-70
2023/11/28 12:14:31;;;;;;;;;;;21.40;55.10;;;;;;5019571;28;1428;-70
2023/11/28 12:16:57;;;;;;;;;;;21.30;54.00;;;;;;5019755;28;1436;-69
2023/11/28 12:19:22;;;;;;;;;;;21.30;53.30;;;;;;5003289;28;1914;-70
2023/11/28 12:21:48;;;;;;;;;;;21.20;52.50;;;;;;5019426;28;1354;-72
2023/11/28 12:24:13;;;;;;;;;;;21.10;52.40;;;;;;5019670;28;1886;-69
2023/11/28 12:26:42;;;;;;;;;;;21.10;51.90;;;;;;5020257;28;1351;-70
2023/11/28 12:29:08;;;;;;;;;;;21.00;51.40;;;;;;5018727;28;1368;-71
2023/11/28 12:31:33;;;;;;;;;;;21.00;50.80;;;;;;5006376;28;1230;-70
2023/11/28 12:33:59;;;;;;;;;;;20.90;50.60;;;;;;5004712;28;1232;-69
2023/11/28 12:36:27;;;;;;;;;;;20.90;51.20;;;;;;5021058;28;1295;-70
2023/11/28 12:38:54;;;;;;;;;;;20.80;51.00;;;;;;5000789;28;1402;-69
2023/11/28 12:41:20;;;;;;;;;;;20.80;50.70;;;;;;5022077;28;1497;-69
2023/11/28 12:43:45;;;;;;;;;;;20.70;50.10;;;;;;5021373;28;1365;-70
2023/11/28 12:46:11;;;;;;;;;;;20.70;49.60;;;;;;5004253;28;1938;-70
2023/11/28 12:48:37;;;;;;;;;;;20.60;50.40;;;;;;5015155;28;1141;-70
2023/11/28 12:51:03;;;;;;;;;;;20.60;51.10;;;;;;5019713;28;2092;-69
2023/11/28 12:53:30;;;;;;;;;;;20.70;55.20;;;;;;5022109;28;1517;-70
2023/11/28 12:55:56;;;;;;;;;;;20.70;56.60;;;;;;5002279;28;1573;-70
2023/11/28 12:58:24;;;;;;;;;;;20.70;57.10;;;;;;5003307;28;1379;-71
2023/11/28 13:00:50;;;;;;;;;;;20.70;57.70;;;;;;5019934;28;1600;-70
2023/11/28 13:03:16;;;;;;;;;;;20.80;58.20;;;;;;5021832;28;1302;-70
2023/11/28 13:05:41;;;;;;;;;;;20.80;58.60;;;;;;5018692;28;1915;-70
2023/11/28 13:08:06;;;;;;;;;;;20.80;58.50;;;;;;5020688;28;1414;-70
2023/11/28 13:10:32;;;;;;;;;;;20.80;58.80;;;;;;5022330;28;1056;-70
2023/11/28 13:12:58;;;;;;;;;;;20.90;59.30;;;;;;5020355;28;1224;-70
2023/11/28 13:15:24;;;;;;;;;;;20.90;59.50;;;;;;5021583;28;1398;-70
2023/11/28 13:17:49;;;;;;;;;;;20.90;59.70;;;;;;5018676;28;1488;-70
2023/11/28 13:20:20;;;;;;;;;;;20.90;59.30;;;;;;5019267;28;1937;-70
2023/11/28 13:22:46;;;;;;;;;;;20.90;59.20;;;;;;5014983;28;2002;-70
2023/11/28 13:25:11;;;;;;;;;;;20.90;59.10;;;;;;5000435;28;1969;-70
2023/11/28 13:27:37;;;;;;;;;;;20.80;58.80;;;;;;5017424;28;1509;-70
2023/11/28 13:30:05;;;;;;;;;;;20.80;58.90;;;;;;5020861;28;1871;-70
2023/11/28 13:32:31;;;;;;;;;;;20.80;59.00;;;;;;5016506;28;4629;-70
2023/11/28 13:34:57;;;;;;;;;;;20.80;59.10;;;;;;5002796;28;1591;-70
2023/11/28 13:37:23;;;;;;;;;;;20.70;59.10;;;;;;5004143;28;1605;-71
2023/11/28 13:39:48;;;;;;;;;;;20.70;59.20;;;;;;5022917;28;1503;-70
2023/11/28 13:42:14;;;;;;;;;;;20.70;59.30;;;;;;5002674;28;1421;-69
2023/11/28 13:44:39;;;;;;;;;;;20.70;59.40;;;;;;4988345;28;1973;-70
2023/11/28 13:47:06;;;;;;;;;;;20.70;59.40;;;;;;5025131;28;1508;-70
2023/11/28 13:49:31;;;;;;;;;;;20.70;59.50;;;;;;5005404;28;1379;-70
2023/11/28 13:51:57;;;;;;;;;;;20.60;59.50;;;;;;5005652;28;1043;-70
2023/11/28 13:54:22;;;;;;;;;;;20.60;59.50;;;;;;5012028;28;1481;-70
2023/11/28 13:56:48;;;;;;;;;;;20.60;59.60;;;;;;5025978;28;1520;-70
2023/11/28 13:59:17;;;;;;;;;;;20.60;59.60;;;;;;5022949;28;1249;-70
2023/11/28 14:01:42;;;;;;;;;;;20.60;59.70;;;;;;5007776;28;1570;-70
2023/11/28 14:04:08;;;;;;;;;;;20.60;59.70;;;;;;5025030;28;1921;-70
2023/11/28 14:06:34;;;;;;;;;;;20.60;59.70;;;;;;5020714;28;1496;-70
2023/11/28 14:08:59;;;;;;;;;;;20.60;59.80;;;;;;5022150;28;1411;-70
2023/11/28 14:11:24;;;;;;;;;;;20.60;59.80;;;;;;5024338;28;1359;-70
2023/11/28 14:13:50;;;;;;;;;;;20.60;59.90;;;;;;5025301;28;1413;-71
2023/11/28 14:16:16;;;;;;;;;;;20.60;59.90;;;;;;5019760;28;1359;-70
2023/11/28 14:18:41;;;;;;;;;;;20.60;59.90;;;;;;5022406;28;1331;-70
2023/11/28 14:21:07;;;;;;;;;;;20.60;60.00;;;;;;5021265;28;1598;-70
2023/11/28 14:23:33;;;;;;;;;;;20.50;60.00;;;;;;5024691;28;1286;-70
2023/11/28 14:25:58;;;;;;;;;;;20.60;60.20;;;;;;5003502;28;1967;-70